createdAt,value
2022-08-26T00:14:31.648Z,100658.19
2022-08-26T00:44:34.701Z,100640.07
2022-08-26T01:14:38.170Z,100625.91
2022-08-26T01:44:42.417Z,100618.72
2022-08-26T02:14:47.123Z,100602.78
2022-08-26T02:44:50.421Z,100588.37
2022-08-26T03:14:54.469Z,100578.58
2022-08-26T03:44:57.580Z,100575.88
2022-08-26T04:15:01.548Z,100577.41
2022-08-26T04:45:10.192Z,100582.70
2022-08-26T05:15:14.011Z,100578.61
2022-08-26T05:45:17.038Z,100597.02
2022-08-26T06:15:20.607Z,100586.34
2022-08-26T06:45:24.161Z,100581.97
2022-08-26T07:15:31.502Z,100573.38
2022-08-26T07:45:35.217Z,100563.27
2022-08-26T08:15:39.182Z,100569.02
2022-08-26T08:45:42.137Z,100539.78
2022-08-26T09:48:06.087Z,100509.61
2022-08-26T10:18:10.116Z,100487.25
2022-08-26T10:48:14.358Z,100463.42
2022-08-26T11:18:17.781Z,100431.09
2022-08-26T11:48:22.028Z,100400.81
2022-08-26T12:18:29.348Z,100369.52
2022-08-26T12:48:33.312Z,100337.05
2022-08-26T13:18:38.050Z,100308.64
2022-08-26T13:48:41.339Z,100280.77
2022-08-26T14:18:50.857Z,100257.59
2022-08-26T14:48:54.252Z,100256.23
2022-08-26T15:19:05.317Z,100230.20
2022-08-26T15:49:08.735Z,100229.16
2022-08-26T16:19:21.643Z,100235.16
2022-08-26T16:49:25.161Z,100226.40
2022-08-26T17:19:29.288Z,100225.14
2022-08-26T17:49:39.392Z,100211.36
2022-08-26T18:19:44.532Z,100225.52
2022-08-26T18:49:48.071Z,100242.75
2022-08-26T19:19:52.640Z,100257.20
2022-08-26T19:49:56.466Z,100273.38
2022-08-26T20:20:02.443Z,100265.34
2022-08-26T20:50:06.095Z,100286.49
2022-08-26T21:20:11.927Z,100269.22
2022-08-26T21:50:15.181Z,100255.69
2022-08-26T22:20:18.977Z,100230.83
2022-08-26T22:50:21.879Z,100214.91
2022-08-26T23:20:26.013Z,100201.50
2022-08-26T23:50:28.735Z,100183.36
